sensor_id;sensor_type;location;lat;lon;timestamp;temperature;humidity
11045;DHT22;9786;42.714;23.272;2024-03-08T00:00:26;5.50;90.00
11045;DHT22;9786;42.714;23.272;2024-03-08T00:02:56;5.50;90.00
11045;DHT22;9786;42.714;23.272;2024-03-08T00:05:34;5.50;90.10
11045;DHT22;9786;42.714;23.272;2024-03-08T00:08:04;5.30;90.00
11045;DHT22;9786;42.714;23.272;2024-03-08T00:10:38;5.30;90.10
11045;DHT22;9786;42.714;23.272;2024-03-08T00:13:07;5.30;90.00
11045;DHT22;9786;42.714;23.272;2024-03-08T00:15:38;5.40;90.00
11045;DHT22;9786;42.714;23.272;2024-03-08T00:18:09;5.40;89.60
11045;DHT22;9786;42.714;23.272;2024-03-08T00:20:39;5.20;89.80
11045;DHT22;9786;42.714;23.272;2024-03-08T00:23:09;5.20;89.80
11045;DHT22;9786;42.714;23.272;2024-03-08T00:25:39;5.40;89.90
11045;DHT22;9786;42.714;23.272;2024-03-08T00:28:08;5.30;90.00
11045;DHT22;9786;42.714;23.272;2024-03-08T00:30:42;5.20;90.30
11045;DHT22;9786;42.714;23.272;2024-03-08T00:33:13;5.20;90.60
11045;DHT22;9786;42.714;23.272;2024-03-08T00:35:42;5.20;90.70
11045;DHT22;9786;42.714;23.272;2024-03-08T00:38:12;5.30;90.80
11045;DHT22;9786;42.714;23.272;2024-03-08T00:40:42;5.30;91.00
11045;DHT22;9786;42.714;23.272;2024-03-08T00:43:11;5.40;90.90
11045;DHT22;9786;42.714;23.272;2024-03-08T00:45:42;5.50;91.10
11045;DHT22;9786;42.714;23.272;2024-03-08T00:48:12;5.50;90.90
11045;DHT22;9786;42.714;23.272;2024-03-08T00:50:42;5.40;91.20
11045;DHT22;9786;42.714;23.272;2024-03-08T00:53:13;5.30;91.30
11045;DHT22;9786;42.714;23.272;2024-03-08T00:55:43;5.30;91.80
11045;DHT22;9786;42.714;23.272;2024-03-08T00:58:14;5.30;91.50
11045;DHT22;9786;42.714;23.272;2024-03-08T01:00:44;5.20;91.40
11045;DHT22;9786;42.714;23.272;2024-03-08T01:03:14;5.20;91.70
11045;DHT22;9786;42.714;23.272;2024-03-08T01:05:43;5.20;91.50
11045;DHT22;9786;42.714;23.272;2024-03-08T01:08:14;5.20;91.30
11045;DHT22;9786;42.714;23.272;2024-03-08T01:10:44;5.40;91.30
11045;DHT22;9786;42.714;23.272;2024-03-08T01:13:14;5.40;91.00
11045;DHT22;9786;42.714;23.272;2024-03-08T01:15:45;5.30;90.80
11045;DHT22;9786;42.714;23.272;2024-03-08T01:18:14;5.20;91.10
11045;DHT22;9786;42.714;23.272;2024-03-08T01:20:45;5.30;91.20
11045;DHT22;9786;42.714;23.272;2024-03-08T01:23:14;5.10;91.10
11045;DHT22;9786;42.714;23.272;2024-03-08T01:25:43;5.10;91.10
11045;DHT22;9786;42.714;23.272;2024-03-08T01:28:13;5.10;91.10
11045;DHT22;9786;42.714;23.272;2024-03-08T01:30:42;5.20;91.10
11045;DHT22;9786;42.714;23.272;2024-03-08T01:33:14;5.10;91.20
11045;DHT22;9786;42.714;23.272;2024-03-08T01:35:44;5.10;91.20
11045;DHT22;9786;42.714;23.272;2024-03-08T01:38:13;5.10;91.10
11045;DHT22;9786;42.714;23.272;2024-03-08T01:40:43;5.20;91.10
11045;DHT22;9786;42.714;23.272;2024-03-08T01:43:19;5.20;91.10
11045;DHT22;9786;42.714;23.272;2024-03-08T01:45:49;5.20;90.90
11045;DHT22;9786;42.714;23.272;2024-03-08T01:48:20;5.20;90.80
11045;DHT22;9786;42.714;23.272;2024-03-08T01:50:52;5.30;90.90
11045;DHT22;9786;42.714;23.272;2024-03-08T01:53:22;5.50;90.70
11045;DHT22;9786;42.714;23.272;2024-03-08T01:55:56;5.40;90.30
11045;DHT22;9786;42.714;23.272;2024-03-08T01:58:29;5.40;90.50
11045;DHT22;9786;42.714;23.272;2024-03-08T02:01:00;5.30;90.40
11045;DHT22;9786;42.714;23.272;2024-03-08T02:03:32;5.40;90.40
11045;DHT22;9786;42.714;23.272;2024-03-08T02:06:02;5.30;90.40
11045;DHT22;9786;42.714;23.272;2024-03-08T02:08:32;5.30;90.50
11045;DHT22;9786;42.714;23.272;2024-03-08T02:11:02;5.40;90.80
11045;DHT22;9786;42.714;23.272;2024-03-08T02:13:32;5.50;90.20
11045;DHT22;9786;42.714;23.272;2024-03-08T02:16:02;5.60;90.20
11045;DHT22;9786;42.714;23.272;2024-03-08T02:18:33;5.60;90.00
11045;DHT22;9786;42.714;23.272;2024-03-08T02:21:06;5.70;89.30
11045;DHT22;9786;42.714;23.272;2024-03-08T02:23:36;5.60;89.10
11045;DHT22;9786;42.714;23.272;2024-03-08T02:26:06;5.50;88.90
11045;DHT22;9786;42.714;23.272;2024-03-08T02:28:35;5.40;89.10
11045;DHT22;9786;42.714;23.272;2024-03-08T02:31:05;5.40;89.00
11045;DHT22;9786;42.714;23.272;2024-03-08T02:33:36;5.40;88.50
11045;DHT22;9786;42.714;23.272;2024-03-08T02:36:07;5.40;87.70
11045;DHT22;9786;42.714;23.272;2024-03-08T02:38:36;5.20;86.60
11045;DHT22;9786;42.714;23.272;2024-03-08T02:41:06;5.30;86.40
11045;DHT22;9786;42.714;23.272;2024-03-08T02:43:35;5.20;86.20
11045;DHT22;9786;42.714;23.272;2024-03-08T02:46:05;5.20;86.30
11045;DHT22;9786;42.714;23.272;2024-03-08T02:48:34;5.10;86.90
11045;DHT22;9786;42.714;23.272;2024-03-08T02:51:05;5.00;87.70
11045;DHT22;9786;42.714;23.272;2024-03-08T02:53:35;5.00;87.60
11045;DHT22;9786;42.714;23.272;2024-03-08T02:56:05;5.10;87.90
11045;DHT22;9786;42.714;23.272;2024-03-08T02:58:36;5.10;87.30
11045;DHT22;9786;42.714;23.272;2024-03-08T03:01:06;5.20;87.30
11045;DHT22;9786;42.714;23.272;2024-03-08T03:03:35;5.10;87.60
11045;DHT22;9786;42.714;23.272;2024-03-08T03:06:06;5.20;87.20
11045;DHT22;9786;42.714;23.272;2024-03-08T03:08:37;5.00;87.60
11045;DHT22;9786;42.714;23.272;2024-03-08T03:11:12;5.10;88.00
11045;DHT22;9786;42.714;23.272;2024-03-08T03:13:41;5.10;88.70
11045;DHT22;9786;42.714;23.272;2024-03-08T03:16:19;5.00;88.60
11045;DHT22;9786;42.714;23.272;2024-03-08T03:18:49;5.10;88.70
11045;DHT22;9786;42.714;23.272;2024-03-08T03:21:19;5.10;88.90
11045;DHT22;9786;42.714;23.272;2024-03-08T03:23:50;5.10;89.10
11045;DHT22;9786;42.714;23.272;2024-03-08T03:26:20;5.10;88.90
11045;DHT22;9786;42.714;23.272;2024-03-08T03:28:49;5.10;88.50
11045;DHT22;9786;42.714;23.272;2024-03-08T03:31:21;5.00;86.60
11045;DHT22;9786;42.714;23.272;2024-03-08T03:33:53;5.30;86.40
11045;DHT22;9786;42.714;23.272;2024-03-08T03:36:22;5.20;85.90
11045;DHT22;9786;42.714;23.272;2024-03-08T03:38:54;5.20;86.30
11045;DHT22;9786;42.714;23.272;2024-03-08T03:41:32;5.30;86.60
11045;DHT22;9786;42.714;23.272;2024-03-08T03:44:02;5.50;86.50
11045;DHT22;9786;42.714;23.272;2024-03-08T03:46:31;5.30;84.90
11045;DHT22;9786;42.714;23.272;2024-03-08T03:49:01;5.50;85.10
11045;DHT22;9786;42.714;23.272;2024-03-08T03:51:31;5.40;84.40
11045;DHT22;9786;42.714;23.272;2024-03-08T03:54:02;5.30;83.10
11045;DHT22;9786;42.714;23.272;2024-03-08T03:56:32;5.30;83.60
11045;DHT22;9786;42.714;23.272;2024-03-08T03:59:01;5.40;83.40
11045;DHT22;9786;42.714;23.272;2024-03-08T04:01:31;5.40;82.80
11045;DHT22;9786;42.714;23.272;2024-03-08T04:04:05;5.30;82.20
11045;DHT22;9786;42.714;23.272;2024-03-08T04:06:35;5.30;82.30
11045;DHT22;9786;42.714;23.272;2024-03-08T04:09:08;5.30;81.80
11045;DHT22;9786;42.714;23.272;2024-03-08T04:11:38;5.10;82.20
11045;DHT22;9786;42.714;23.272;2024-03-08T04:14:07;5.00;82.80
11045;DHT22;9786;42.714;23.272;2024-03-08T04:16:38;5.00;83.50
11045;DHT22;9786;42.714;23.272;2024-03-08T04:19:07;5.00;83.60
11045;DHT22;9786;42.714;23.272;2024-03-08T04:21:38;5.00;83.70
11045;DHT22;9786;42.714;23.272;2024-03-08T04:24:09;5.00;84.40
11045;DHT22;9786;42.714;23.272;2024-03-08T04:26:39;5.00;84.00
11045;DHT22;9786;42.714;23.272;2024-03-08T04:29:09;5.10;84.20
11045;DHT22;9786;42.714;23.272;2024-03-08T04:31:39;5.20;84.30
11045;DHT22;9786;42.714;23.272;2024-03-08T04:34:08;5.20;84.30
11045;DHT22;9786;42.714;23.272;2024-03-08T04:36:38;5.20;83.70
11045;DHT22;9786;42.714;23.272;2024-03-08T04:39:09;5.10;83.90
11045;DHT22;9786;42.714;23.272;2024-03-08T04:41:41;5.00;84.60
11045;DHT22;9786;42.714;23.272;2024-03-08T04:44:11;5.00;85.10
11045;DHT22;9786;42.714;23.272;2024-03-08T04:46:42;5.00;85.10
11045;DHT22;9786;42.714;23.272;2024-03-08T04:49:12;4.90;85.50
11045;DHT22;9786;42.714;23.272;2024-03-08T04:51:41;4.80;85.90
11045;DHT22;9786;42.714;23.272;2024-03-08T04:54:13;4.80;85.60
11045;DHT22;9786;42.714;23.272;2024-03-08T04:56:42;4.80;85.90
11045;DHT22;9786;42.714;23.272;2024-03-08T04:59:12;4.80;86.00
11045;DHT22;9786;42.714;23.272;2024-03-08T05:01:41;4.80;86.20
11045;DHT22;9786;42.714;23.272;2024-03-08T05:04:11;4.90;86.30
11045;DHT22;9786;42.714;23.272;2024-03-08T05:06:40;5.00;85.20
11045;DHT22;9786;42.714;23.272;2024-03-08T05:09:10;5.00;85.40
11045;DHT22;9786;42.714;23.272;2024-03-08T05:11:44;4.90;86.60
11045;DHT22;9786;42.714;23.272;2024-03-08T05:14:14;4.90;85.90
11045;DHT22;9786;42.714;23.272;2024-03-08T05:16:46;4.70;86.60
11045;DHT22;9786;42.714;23.272;2024-03-08T05:19:17;4.60;86.80
11045;DHT22;9786;42.714;23.272;2024-03-08T05:21:49;4.50;88.20
11045;DHT22;9786;42.714;23.272;2024-03-08T05:24:19;4.40;89.00
11045;DHT22;9786;42.714;23.272;2024-03-08T05:26:50;4.40;88.90
11045;DHT22;9786;42.714;23.272;2024-03-08T05:29:19;4.50;88.40
11045;DHT22;9786;42.714;23.272;2024-03-08T05:31:50;4.40;89.00
11045;DHT22;9786;42.714;23.272;2024-03-08T05:34:21;4.50;89.20
11045;DHT22;9786;42.714;23.272;2024-03-08T05:36:50;4.50;89.00
11045;DHT22;9786;42.714;23.272;2024-03-08T05:39:22;4.50;88.80
11045;DHT22;9786;42.714;23.272;2024-03-08T05:41:53;4.50;88.50
11045;DHT22;9786;42.714;23.272;2024-03-08T05:44:24;4.50;88.60
11045;DHT22;9786;42.714;23.272;2024-03-08T05:46:56;4.40;89.00
11045;DHT22;9786;42.714;23.272;2024-03-08T05:49:26;4.50;88.70
11045;DHT22;9786;42.714;23.272;2024-03-08T05:51:56;4.50;89.10
11045;DHT22;9786;42.714;23.272;2024-03-08T05:54:27;4.40;88.70
11045;DHT22;9786;42.714;23.272;2024-03-08T05:56:58;4.30;89.40
11045;DHT22;9786;42.714;23.272;2024-03-08T05:59:28;4.20;90.10
11045;DHT22;9786;42.714;23.272;2024-03-08T06:01:57;4.30;89.80
11045;DHT22;9786;42.714;23.272;2024-03-08T06:04:26;4.40;89.60
11045;DHT22;9786;42.714;23.272;2024-03-08T06:06:56;4.40;89.60
11045;DHT22;9786;42.714;23.272;2024-03-08T06:09:26;4.20;90.20
11045;DHT22;9786;42.714;23.272;2024-03-08T06:11:55;4.30;90.10
11045;DHT22;9786;42.714;23.272;2024-03-08T06:14:26;4.40;90.00
11045;DHT22;9786;42.714;23.272;2024-03-08T06:16:56;4.20;90.20
11045;DHT22;9786;42.714;23.272;2024-03-08T06:19:25;4.20;90.10
11045;DHT22;9786;42.714;23.272;2024-03-08T06:21:55;4.20;90.30
11045;DHT22;9786;42.714;23.272;2024-03-08T06:24:24;4.20;90.30
11045;DHT22;9786;42.714;23.272;2024-03-08T06:26:53;4.20;90.30
11045;DHT22;9786;42.714;23.272;2024-03-08T06:29:23;4.10;90.20
11045;DHT22;9786;42.714;23.272;2024-03-08T06:31:54;4.20;90.70
11045;DHT22;9786;42.714;23.272;2024-03-08T06:34:24;4.20;90.40
11045;DHT22;9786;42.714;23.272;2024-03-08T06:36:53;4.40;90.30
11045;DHT22;9786;42.714;23.272;2024-03-08T06:39:28;4.40;90.20
11045;DHT22;9786;42.714;23.272;2024-03-08T06:41:59;4.50;89.80
11045;DHT22;9786;42.714;23.272;2024-03-08T06:44:29;4.50;89.00
11045;DHT22;9786;42.714;23.272;2024-03-08T06:46:59;4.30;88.90
11045;DHT22;9786;42.714;23.272;2024-03-08T06:49:32;4.40;89.40
11045;DHT22;9786;42.714;23.272;2024-03-08T06:52:01;4.50;89.10
11045;DHT22;9786;42.714;23.272;2024-03-08T06:54:32;4.40;89.10
11045;DHT22;9786;42.714;23.272;2024-03-08T06:57:02;4.30;89.70
11045;DHT22;9786;42.714;23.272;2024-03-08T06:59:32;4.50;89.60
11045;DHT22;9786;42.714;23.272;2024-03-08T07:02:05;4.50;89.20
11045;DHT22;9786;42.714;23.272;2024-03-08T07:04:37;4.30;89.40
11045;DHT22;9786;42.714;23.272;2024-03-08T07:07:06;4.30;90.20
11045;DHT22;9786;42.714;23.272;2024-03-08T07:09:37;4.40;89.80
11045;DHT22;9786;42.714;23.272;2024-03-08T07:12:06;4.60;89.70
11045;DHT22;9786;42.714;23.272;2024-03-08T07:14:37;4.70;89.80
11045;DHT22;9786;42.714;23.272;2024-03-08T07:17:11;4.70;88.50
11045;DHT22;9786;42.714;23.272;2024-03-08T07:19:40;4.60;88.50
11045;DHT22;9786;42.714;23.272;2024-03-08T07:22:11;4.80;88.50
11045;DHT22;9786;42.714;23.272;2024-03-08T07:24:47;4.90;89.10
11045;DHT22;9786;42.714;23.272;2024-03-08T07:27:35;5.10;88.50
11045;DHT22;9786;42.714;23.272;2024-03-08T07:30:05;5.10;87.20
11045;DHT22;9786;42.714;23.272;2024-03-08T07:32:38;5.00;87.40
11045;DHT22;9786;42.714;23.272;2024-03-08T07:35:08;4.90;87.60
11045;DHT22;9786;42.714;23.272;2024-03-08T07:37:39;5.00;88.00
11045;DHT22;9786;42.714;23.272;2024-03-08T07:40:10;5.10;88.10
11045;DHT22;9786;42.714;23.272;2024-03-08T07:42:41;5.20;88.20
11045;DHT22;9786;42.714;23.272;2024-03-08T07:45:11;5.30;87.90
11045;DHT22;9786;42.714;23.272;2024-03-08T07:47:42;5.20;86.80
11045;DHT22;9786;42.714;23.272;2024-03-08T07:50:12;5.40;86.60
11045;DHT22;9786;42.714;23.272;2024-03-08T07:52:47;5.30;86.40
11045;DHT22;9786;42.714;23.272;2024-03-08T07:55:16;5.30;86.10
11045;DHT22;9786;42.714;23.272;2024-03-08T07:57:45;5.20;86.10
11045;DHT22;9786;42.714;23.272;2024-03-08T08:00:19;5.20;86.20
11045;DHT22;9786;42.714;23.272;2024-03-08T08:02:51;5.30;86.40
11045;DHT22;9786;42.714;23.272;2024-03-08T08:05:20;5.30;86.00
11045;DHT22;9786;42.714;23.272;2024-03-08T08:07:50;5.50;86.10
11045;DHT22;9786;42.714;23.272;2024-03-08T08:10:23;5.60;84.20
11045;DHT22;9786;42.714;23.272;2024-03-08T08:12:53;5.70;83.30
11045;DHT22;9786;42.714;23.272;2024-03-08T08:15:24;6.10;82.70
11045;DHT22;9786;42.714;23.272;2024-03-08T08:17:57;6.50;80.00
11045;DHT22;9786;42.714;23.272;2024-03-08T08:20:27;7.10;80.00
11045;DHT22;9786;42.714;23.272;2024-03-08T08:22:57;7.10;76.00
11045;DHT22;9786;42.714;23.272;2024-03-08T08:25:26;7.20;76.90
11045;DHT22;9786;42.714;23.272;2024-03-08T08:27:56;7.50;75.20
11045;DHT22;9786;42.714;23.272;2024-03-08T08:30:28;7.40;75.10
11045;DHT22;9786;42.714;23.272;2024-03-08T08:32:59;7.30;74.50
11045;DHT22;9786;42.714;23.272;2024-03-08T08:35:30;7.40;75.20
11045;DHT22;9786;42.714;23.272;2024-03-08T08:38:01;7.50;74.10
11045;DHT22;9786;42.714;23.272;2024-03-08T08:40:32;7.60;72.80
11045;DHT22;9786;42.714;23.272;2024-03-08T08:43:01;7.70;72.60
11045;DHT22;9786;42.714;23.272;2024-03-08T08:45:32;8.00;72.00
11045;DHT22;9786;42.714;23.272;2024-03-08T08:48:02;8.10;70.30
11045;DHT22;9786;42.714;23.272;2024-03-08T08:50:33;8.00;70.70
11045;DHT22;9786;42.714;23.272;2024-03-08T08:53:02;7.80;70.60
11045;DHT22;9786;42.714;23.272;2024-03-08T08:55:32;7.80;72.90
11045;DHT22;9786;42.714;23.272;2024-03-08T08:58:04;7.60;71.30
11045;DHT22;9786;42.714;23.272;2024-03-08T09:00:35;7.90;71.60
11045;DHT22;9786;42.714;23.272;2024-03-08T09:03:05;8.00;72.10
11045;DHT22;9786;42.714;23.272;2024-03-08T09:05:35;8.20;71.10
11045;DHT22;9786;42.714;23.272;2024-03-08T09:08:06;8.30;70.90
11045;DHT22;9786;42.714;23.272;2024-03-08T09:10:36;8.40;70.70
11045;DHT22;9786;42.714;23.272;2024-03-08T09:13:08;7.90;70.10
11045;DHT22;9786;42.714;23.272;2024-03-08T09:15:52;7.90;69.80
11045;DHT22;9786;42.714;23.272;2024-03-08T09:18:22;8.10;71.80
11045;DHT22;9786;42.714;23.272;2024-03-08T09:20:52;8.20;71.90
11045;DHT22;9786;42.714;23.272;2024-03-08T09:23:22;8.40;72.60
11045;DHT22;9786;42.714;23.272;2024-03-08T09:25:55;8.70;72.10
11045;DHT22;9786;42.714;23.272;2024-03-08T09:28:25;8.70;70.80
11045;DHT22;9786;42.714;23.272;2024-03-08T09:30:55;8.80;69.90
11045;DHT22;9786;42.714;23.272;2024-03-08T09:33:28;9.40;69.20
11045;DHT22;9786;42.714;23.272;2024-03-08T11:11:03;10.40;63.20
11045;DHT22;9786;42.714;23.272;2024-03-08T11:13:34;11.70;58.10
11045;DHT22;9786;42.714;23.272;2024-03-08T11:16:07;11.20;58.50
11045;DHT22;9786;42.714;23.272;2024-03-08T11:18:37;11.00;61.00
11045;DHT22;9786;42.714;23.272;2024-03-08T11:21:08;11.40;60.80
11045;DHT22;9786;42.714;23.272;2024-03-08T11:23:40;11.90;56.00
11045;DHT22;9786;42.714;23.272;2024-03-08T11:26:19;11.10;56.60
11045;DHT22;9786;42.714;23.272;2024-03-08T11:28:49;10.60;58.60
11045;DHT22;9786;42.714;23.272;2024-03-08T11:31:25;10.40;58.80
11045;DHT22;9786;42.714;23.272;2024-03-08T11:33:56;9.50;59.50
11045;DHT22;9786;42.714;23.272;2024-03-08T11:36:27;9.50;61.20
11045;DHT22;9786;42.714;23.272;2024-03-08T11:38:57;10.10;60.30
11045;DHT22;9786;42.714;23.272;2024-03-08T11:41:32;10.40;59.90
11045;DHT22;9786;42.714;23.272;2024-03-08T11:44:05;11.10;58.30
11045;DHT22;9786;42.714;23.272;2024-03-08T11:46:34;10.90;56.60
11045;DHT22;9786;42.714;23.272;2024-03-08T11:49:03;10.80;56.70
11045;DHT22;9786;42.714;23.272;2024-03-08T11:51:33;11.20;58.90
11045;DHT22;9786;42.714;23.272;2024-03-08T11:54:03;11.20;58.90
11045;DHT22;9786;42.714;23.272;2024-03-08T11:56:36;11.70;58.40
11045;DHT22;9786;42.714;23.272;2024-03-08T11:59:05;11.80;56.90
11045;DHT22;9786;42.714;23.272;2024-03-08T12:01:41;11.40;56.80
11045;DHT22;9786;42.714;23.272;2024-03-08T12:04:14;10.10;58.70
11045;DHT22;9786;42.714;23.272;2024-03-08T12:06:44;9.20;61.60
11045;DHT22;9786;42.714;23.272;2024-03-08T12:09:16;9.20;63.10
11045;DHT22;9786;42.714;23.272;2024-03-08T12:11:50;9.00;63.10
11045;DHT22;9786;42.714;23.272;2024-03-08T12:14:20;9.60;63.70
11045;DHT22;9786;42.714;23.272;2024-03-08T12:16:51;9.80;61.30
11045;DHT22;9786;42.714;23.272;2024-03-08T12:19:20;9.90;60.20
11045;DHT22;9786;42.714;23.272;2024-03-08T12:21:50;9.80;59.20
11045;DHT22;9786;42.714;23.272;2024-03-08T12:24:20;10.10;58.90
11045;DHT22;9786;42.714;23.272;2024-03-08T12:26:51;10.30;60.70
11045;DHT22;9786;42.714;23.272;2024-03-08T12:29:21;10.40;59.30
11045;DHT22;9786;42.714;23.272;2024-03-08T12:31:52;9.70;61.80
11045;DHT22;9786;42.714;23.272;2024-03-08T12:34:22;9.60;61.20
11045;DHT22;9786;42.714;23.272;2024-03-08T12:36:52;9.50;61.60
11045;DHT22;9786;42.714;23.272;2024-03-08T12:39:23;9.50;61.20
11045;DHT22;9786;42.714;23.272;2024-03-08T12:41:58;9.40;62.50
11045;DHT22;9786;42.714;23.272;2024-03-08T12:44:28;9.20;63.80
11045;DHT22;9786;42.714;23.272;2024-03-08T12:46:58;8.90;64.40
11045;DHT22;9786;42.714;23.272;2024-03-08T12:49:29;9.40;64.70
11045;DHT22;9786;42.714;23.272;2024-03-08T12:51:59;9.20;64.20
11045;DHT22;9786;42.714;23.272;2024-03-08T12:54:29;9.20;64.80
11045;DHT22;9786;42.714;23.272;2024-03-08T12:57:00;9.10;62.80
11045;DHT22;9786;42.714;23.272;2024-03-08T12:59:32;9.20;64.00
11045;DHT22;9786;42.714;23.272;2024-03-08T13:02:01;9.60;64.20
11045;DHT22;9786;42.714;23.272;2024-03-08T13:04:31;9.20;63.40
11045;DHT22;9786;42.714;23.272;2024-03-08T13:07:00;9.50;65.50
11045;DHT22;9786;42.714;23.272;2024-03-08T13:09:30;9.40;63.60
11045;DHT22;9786;42.714;23.272;2024-03-08T13:12:00;9.40;62.60
11045;DHT22;9786;42.714;23.272;2024-03-08T13:14:30;9.50;64.10
11045;DHT22;9786;42.714;23.272;2024-03-08T13:17:03;9.30;63.40
11045;DHT22;9786;42.714;23.272;2024-03-08T13:19:32;9.10;64.00
11045;DHT22;9786;42.714;23.272;2024-03-08T13:22:02;9.00;64.50
11045;DHT22;9786;42.714;23.272;2024-03-08T13:24:33;8.70;64.90
11045;DHT22;9786;42.714;23.272;2024-03-08T13:27:04;8.50;64.90
11045;DHT22;9786;42.714;23.272;2024-03-08T13:29:45;8.40;64.60
11045;DHT22;9786;42.714;23.272;2024-03-08T13:32:16;8.40;65.10
11045;DHT22;9786;42.714;23.272;2024-03-08T13:34:45;8.40;65.00
11045;DHT22;9786;42.714;23.272;2024-03-08T13:37:15;8.30;65.70
11045;DHT22;9786;42.714;23.272;2024-03-08T13:39:44;8.40;65.50
11045;DHT22;9786;42.714;23.272;2024-03-08T13:42:15;8.00;65.90
11045;DHT22;9786;42.714;23.272;2024-03-08T13:44:45;8.10;66.40
11045;DHT22;9786;42.714;23.272;2024-03-08T13:47:14;8.10;65.40
11045;DHT22;9786;42.714;23.272;2024-03-08T13:49:45;8.00;65.10
11045;DHT22;9786;42.714;23.272;2024-03-08T13:52:15;8.00;65.40
11045;DHT22;9786;42.714;23.272;2024-03-08T13:54:44;8.00;66.60
11045;DHT22;9786;42.714;23.272;2024-03-08T13:57:15;8.20;66.00
11045;DHT22;9786;42.714;23.272;2024-03-08T13:59:46;8.20;65.30
11045;DHT22;9786;42.714;23.272;2024-03-08T14:02:15;8.20;65.60
11045;DHT22;9786;42.714;23.272;2024-03-08T14:04:45;8.30;65.40
11045;DHT22;9786;42.714;23.272;2024-03-08T14:07:15;8.40;65.10
11045;DHT22;9786;42.714;23.272;2024-03-08T14:09:44;8.40;64.40
11045;DHT22;9786;42.714;23.272;2024-03-08T14:12:14;8.30;64.60
11045;DHT22;9786;42.714;23.272;2024-03-08T14:14:44;8.40;64.60
11045;DHT22;9786;42.714;23.272;2024-03-08T14:17:13;8.40;64.30
11045;DHT22;9786;42.714;23.272;2024-03-08T14:19:46;8.40;64.60
11045;DHT22;9786;42.714;23.272;2024-03-08T14:22:15;8.20;65.60
11045;DHT22;9786;42.714;23.272;2024-03-08T14:24:45;8.30;64.70
11045;DHT22;9786;42.714;23.272;2024-03-08T14:27:16;8.20;65.60
11045;DHT22;9786;42.714;23.272;2024-03-08T14:29:46;8.10;65.90
11045;DHT22;9786;42.714;23.272;2024-03-08T14:32:15;8.20;65.40
11045;DHT22;9786;42.714;23.272;2024-03-08T14:34:47;8.00;65.70
11045;DHT22;9786;42.714;23.272;2024-03-08T14:37:17;8.00;66.00
11045;DHT22;9786;42.714;23.272;2024-03-08T14:39:50;7.70;67.20
11045;DHT22;9786;42.714;23.272;2024-03-08T14:42:21;7.60;68.20
11045;DHT22;9786;42.714;23.272;2024-03-08T14:44:51;7.80;68.40
11045;DHT22;9786;42.714;23.272;2024-03-08T14:47:22;7.80;68.80
11045;DHT22;9786;42.714;23.272;2024-03-08T14:49:50;7.70;68.70
11045;DHT22;9786;42.714;23.272;2024-03-08T14:52:20;7.80;68.80
11045;DHT22;9786;42.714;23.272;2024-03-08T14:54:56;7.60;69.10
11045;DHT22;9786;42.714;23.272;2024-03-08T14:57:28;7.50;70.60
11045;DHT22;9786;42.714;23.272;2024-03-08T15:00:00;7.50;69.80
11045;DHT22;9786;42.714;23.272;2024-03-08T15:02:33;7.60;67.80
11045;DHT22;9786;42.714;23.272;2024-03-08T15:05:04;7.50;68.10
11045;DHT22;9786;42.714;23.272;2024-03-08T15:07:39;7.30;67.90
11045;DHT22;9786;42.714;23.272;2024-03-08T15:10:10;7.20;68.30
11045;DHT22;9786;42.714;23.272;2024-03-08T15:12:45;7.20;69.10
11045;DHT22;9786;42.714;23.272;2024-03-08T15:15:18;7.10;68.90
11045;DHT22;9786;42.714;23.272;2024-03-08T15:17:47;7.20;69.20
11045;DHT22;9786;42.714;23.272;2024-03-08T15:20:17;7.30;69.60
11045;DHT22;9786;42.714;23.272;2024-03-08T15:22:57;7.10;69.60
11045;DHT22;9786;42.714;23.272;2024-03-08T15:25:27;7.00;70.40
11045;DHT22;9786;42.714;23.272;2024-03-08T15:27:58;7.00;71.10
11045;DHT22;9786;42.714;23.272;2024-03-08T15:30:30;6.80;72.30
11045;DHT22;9786;42.714;23.272;2024-03-08T15:33:01;6.90;71.90
11045;DHT22;9786;42.714;23.272;2024-03-08T15:35:31;6.90;72.10
11045;DHT22;9786;42.714;23.272;2024-03-08T15:38:00;6.80;72.90
11045;DHT22;9786;42.714;23.272;2024-03-08T15:40:31;6.80;73.00
11045;DHT22;9786;42.714;23.272;2024-03-08T15:43:04;6.90;72.60
11045;DHT22;9786;42.714;23.272;2024-03-08T15:45:34;6.90;72.50
11045;DHT22;9786;42.714;23.272;2024-03-08T15:48:05;6.90;72.40
11045;DHT22;9786;42.714;23.272;2024-03-08T15:50:36;6.80;73.00
11045;DHT22;9786;42.714;23.272;2024-03-08T15:53:06;6.70;73.00
11045;DHT22;9786;42.714;23.272;2024-03-08T15:55:35;6.70;73.80
11045;DHT22;9786;42.714;23.272;2024-03-08T15:58:06;6.70;73.90
11045;DHT22;9786;42.714;23.272;2024-03-08T16:00:39;6.70;74.10
11045;DHT22;9786;42.714;23.272;2024-03-08T16:03:15;6.70;74.50
11045;DHT22;9786;42.714;23.272;2024-03-08T16:05:44;6.90;74.30
11045;DHT22;9786;42.714;23.272;2024-03-08T16:08:17;6.80;74.30
11045;DHT22;9786;42.714;23.272;2024-03-08T16:10:49;6.90;73.50
11045;DHT22;9786;42.714;23.272;2024-03-08T16:13:23;6.90;73.20
11045;DHT22;9786;42.714;23.272;2024-03-08T16:15:56;6.60;74.00
11045;DHT22;9786;42.714;23.272;2024-03-08T16:18:26;6.30;75.00
11045;DHT22;9786;42.714;23.272;2024-03-08T16:20:56;6.30;75.20
11045;DHT22;9786;42.714;23.272;2024-03-08T16:23:25;6.50;75.30
11045;DHT22;9786;42.714;23.272;2024-03-08T16:25:54;6.40;75.10
11045;DHT22;9786;42.714;23.272;2024-03-08T16:28:25;6.50;75.00
11045;DHT22;9786;42.714;23.272;2024-03-08T16:30:55;6.50;75.20
11045;DHT22;9786;42.714;23.272;2024-03-08T16:33:26;6.60;74.70
11045;DHT22;9786;42.714;23.272;2024-03-08T16:35:55;6.40;74.90
11045;DHT22;9786;42.714;23.272;2024-03-08T16:38:25;6.20;75.00
11045;DHT22;9786;42.714;23.272;2024-03-08T16:40:54;6.10;75.80
11045;DHT22;9786;42.714;23.272;2024-03-08T16:43:27;6.10;75.70
11045;DHT22;9786;42.714;23.272;2024-03-08T16:45:55;6.10;76.30
11045;DHT22;9786;42.714;23.272;2024-03-08T16:48:26;6.20;75.30
11045;DHT22;9786;42.714;23.272;2024-03-08T16:50:57;5.80;76.30
11045;DHT22;9786;42.714;23.272;2024-03-08T16:53:27;5.80;77.10
11045;DHT22;9786;42.714;23.272;2024-03-08T16:55:58;5.80;76.80
11045;DHT22;9786;42.714;23.272;2024-03-08T16:58:29;5.80;77.00
11045;DHT22;9786;42.714;23.272;2024-03-08T17:01:00;5.80;77.20
11045;DHT22;9786;42.714;23.272;2024-03-08T17:03:31;5.90;76.90
11045;DHT22;9786;42.714;23.272;2024-03-08T17:06:07;5.90;76.60
11045;DHT22;9786;42.714;23.272;2024-03-08T17:08:36;5.90;76.80
11045;DHT22;9786;42.714;23.272;2024-03-08T17:11:05;6.10;76.70
11045;DHT22;9786;42.714;23.272;2024-03-08T17:13:40;5.90;76.90
11045;DHT22;9786;42.714;23.272;2024-03-08T17:16:08;5.90;77.60
11045;DHT22;9786;42.714;23.272;2024-03-08T17:18:40;5.80;77.20
11045;DHT22;9786;42.714;23.272;2024-03-08T17:21:13;5.90;77.30
11045;DHT22;9786;42.714;23.272;2024-03-08T17:23:46;6.00;76.80
11045;DHT22;9786;42.714;23.272;2024-03-08T17:26:16;6.00;77.00
11045;DHT22;9786;42.714;23.272;2024-03-08T17:28:47;6.10;76.70
11045;DHT22;9786;42.714;23.272;2024-03-08T17:31:20;6.10;76.60
11045;DHT22;9786;42.714;23.272;2024-03-08T17:33:49;6.10;76.70
11045;DHT22;9786;42.714;23.272;2024-03-08T17:36:19;6.10;76.20
11045;DHT22;9786;42.714;23.272;2024-03-08T17:38:48;6.00;76.10
11045;DHT22;9786;42.714;23.272;2024-03-08T17:41:18;6.10;76.20